createdAt,value
2019-03-06T00:00:08.633Z,40.40
2019-03-06T00:02:40.582Z,40.35
2019-03-06T00:05:10.898Z,40.22
2019-03-06T00:07:41.226Z,40.34
2019-03-06T00:10:26.272Z,40.27
2019-03-06T00:12:56.608Z,40.26
2019-03-06T00:15:27.006Z,40.23
2019-03-06T00:17:57.369Z,40.13
2019-03-06T00:20:28.418Z,40.20
2019-03-06T00:22:58.752Z,40.17
2019-03-06T00:25:29.211Z,40.09
2019-03-06T00:27:59.512Z,40.23
2019-03-06T00:30:30.379Z,40.29
2019-03-06T00:33:00.747Z,40.29
2019-03-06T00:35:36.917Z,40.32
2019-03-06T00:38:09.912Z,40.27
2019-03-06T00:40:45.139Z,40.31
2019-03-06T00:43:15.386Z,40.29
2019-03-06T00:45:45.689Z,40.14
2019-03-06T00:48:15.925Z,40.19
2019-03-06T00:50:46.514Z,40.27
2019-03-06T00:53:17.699Z,40.11
2019-03-06T00:55:48.036Z,40.12
2019-03-06T00:58:18.267Z,40.14
2019-03-06T01:00:48.545Z,40.12
2019-03-06T01:03:19.128Z,40.04
2019-03-06T01:05:49.352Z,40.11
2019-03-06T01:08:19.668Z,40.23
2019-03-06T01:10:49.943Z,40.15
2019-03-06T01:13:20.535Z,40.16
2019-03-06T01:15:50.763Z,40.14
2019-03-06T01:18:21.157Z,40.15
2019-03-06T01:20:51.650Z,40.08
2019-03-06T01:23:22.005Z,40.18
2019-03-06T01:25:52.509Z,40.08
2019-03-06T01:28:22.769Z,40.25
2019-03-06T01:30:55.841Z,40.25
2019-03-06T01:33:40.427Z,40.16
2019-03-06T01:36:26.457Z,40.19
2019-03-06T01:39:02.853Z,40.12
2019-03-06T01:41:42.454Z,39.97
2019-03-06T01:44:17.187Z,40.05
2019-03-06T01:46:47.499Z,40.01
2019-03-06T01:49:17.755Z,39.98
2019-03-06T01:51:48.026Z,39.97
2019-03-06T01:54:18.402Z,39.94
2019-03-06T01:56:48.612Z,39.95
2019-03-06T01:59:18.995Z,40.00
2019-03-06T02:01:50.597Z,39.99
2019-03-06T02:04:20.982Z,40.04
2019-03-06T02:06:51.202Z,39.87
2019-03-06T02:09:22.818Z,39.85
2019-03-06T02:11:53.167Z,39.96
2019-03-06T02:14:23.524Z,39.89
2019-03-06T02:16:53.835Z,39.80
2019-03-06T02:19:24.238Z,39.69
2019-03-06T02:21:54.549Z,39.72
2019-03-06T02:24:24.940Z,39.71
2019-03-06T02:26:55.277Z,39.82
2019-03-06T02:29:25.575Z,39.87
2019-03-06T02:31:55.924Z,40.01
2019-03-06T02:34:26.408Z,40.04
2019-03-06T02:36:59.101Z,39.96
2019-03-06T02:39:29.534Z,39.97
2019-03-06T02:41:59.863Z,40.01
2019-03-06T02:44:30.352Z,40.05
2019-03-06T02:47:01.022Z,39.82
2019-03-06T02:49:31.314Z,39.80
2019-03-06T02:52:01.679Z,39.96
2019-03-06T02:54:32.040Z,39.98
2019-03-06T02:57:03.683Z,40.09
2019-03-06T02:59:49.446Z,40.10
2019-03-06T03:02:29.371Z,40.07
2019-03-06T03:05:31.547Z,40.00
2019-03-06T03:08:04.882Z,39.97
2019-03-06T03:10:35.273Z,40.04
2019-03-06T03:13:05.840Z,40.10
2019-03-06T03:15:36.214Z,39.93
2019-03-06T03:18:06.554Z,40.05
2019-03-06T03:20:37.424Z,40.13
2019-03-06T03:23:07.669Z,40.00
2019-03-06T03:25:37.966Z,40.07
2019-03-06T03:28:08.339Z,40.14
2019-03-06T03:30:38.554Z,40.00
2019-03-06T03:33:09.002Z,40.02
2019-03-06T03:35:39.403Z,40.06
2019-03-06T03:38:09.741Z,40.02
2019-03-06T03:40:40.097Z,39.86
2019-03-06T03:43:10.369Z,40.01
2019-03-06T03:45:40.767Z,40.11
2019-03-06T03:48:11.445Z,40.18
2019-03-06T03:50:41.728Z,40.24
2019-03-06T03:53:11.962Z,40.21
2019-03-06T03:55:42.292Z,40.21
2019-03-06T03:58:12.571Z,40.26
2019-03-06T04:00:44.972Z,40.10
2019-03-06T04:03:15.275Z,40.10
2019-03-06T04:05:45.542Z,40.02
2019-03-06T04:08:15.746Z,39.87
2019-03-06T04:10:46.031Z,39.67
2019-03-06T04:13:16.312Z,39.84
2019-03-06T04:15:46.496Z,39.82
2019-03-06T04:18:19.948Z,39.82
2019-03-06T04:21:06.457Z,39.80
2019-03-06T04:23:38.355Z,39.56
2019-03-06T04:26:08.623Z,39.56
2019-03-06T04:28:38.980Z,39.42
2019-03-06T04:31:09.228Z,39.50
2019-03-06T04:33:39.500Z,39.62
2019-03-06T04:36:09.888Z,39.54
2019-03-06T04:38:40.136Z,39.45
2019-03-06T04:41:10.414Z,39.53
2019-03-06T04:43:41.041Z,39.33
2019-03-06T04:46:11.318Z,39.42
2019-03-06T04:48:41.690Z,39.67
2019-03-06T04:51:13.470Z,39.85
2019-03-06T04:53:43.762Z,39.98
2019-03-06T04:56:14.066Z,39.96
2019-03-06T04:58:44.421Z,39.85
2019-03-06T05:01:14.650Z,39.75
2019-03-06T05:03:45.250Z,39.68
2019-03-06T05:06:15.736Z,39.65
2019-03-06T05:08:47.068Z,39.75
2019-03-06T05:11:17.285Z,39.64
2019-03-06T05:13:47.881Z,39.37
2019-03-06T05:16:18.169Z,38.21
2019-03-06T05:18:51.328Z,36.98
2019-03-06T05:21:23.696Z,36.00
2019-03-06T05:23:54.031Z,35.09
2019-03-06T05:26:24.467Z,34.49
2019-03-06T05:28:54.983Z,33.85
2019-03-06T05:31:25.587Z,33.29
2019-03-06T05:33:55.840Z,32.84
2019-03-06T05:36:57.942Z,32.38
2019-03-06T05:39:28.174Z,31.97
2019-03-06T05:41:58.371Z,31.69
2019-03-06T05:44:28.653Z,31.33
2019-03-06T05:46:59.038Z,31.03
2019-03-06T05:49:29.348Z,30.80
2019-03-06T05:51:59.620Z,30.61
2019-03-06T05:54:32.679Z,30.32
2019-03-06T05:57:07.252Z,30.14
2019-03-06T05:59:37.448Z,30.01
2019-03-06T06:02:07.917Z,29.87
2019-03-06T06:04:38.174Z,29.73
2019-03-06T06:07:08.555Z,30.07
2019-03-06T06:09:38.933Z,30.33
2019-03-06T06:12:09.159Z,30.76
2019-03-06T06:14:39.934Z,31.33
2019-03-06T06:17:10.170Z,31.68
2019-03-06T06:19:40.806Z,32.19
2019-03-06T06:22:30.124Z,32.42
2019-03-06T06:25:00.610Z,32.73
2019-03-06T06:27:35.241Z,32.99
2019-03-06T06:30:08.872Z,33.18
2019-03-06T06:32:39.118Z,33.29
2019-03-06T06:35:10.630Z,33.08
2019-03-06T06:37:41.346Z,33.38
2019-03-06T06:40:12.746Z,33.70
2019-03-06T06:42:43.039Z,34.02
2019-03-06T06:45:14.692Z,34.09
2019-03-06T06:48:09.993Z,34.25
2019-03-06T06:50:48.070Z,34.28
2019-03-06T06:53:52.442Z,34.25
2019-03-06T06:56:51.166Z,34.34
2019-03-06T06:59:35.256Z,34.14
2019-03-06T07:02:56.833Z,34.35
2019-03-06T07:06:04.528Z,34.42
2019-03-06T07:08:52.608Z,34.40
2019-03-06T07:12:00.344Z,34.47
2019-03-06T07:14:52.381Z,33.96
2019-03-06T07:17:38.057Z,34.32
2019-03-06T07:20:29.969Z,34.17
2019-03-06T07:23:06.599Z,34.25
2019-03-06T07:25:54.808Z,34.46
2019-03-06T07:28:35.790Z,34.37
2019-03-06T07:31:23.977Z,34.49
2019-03-06T07:34:31.921Z,34.52
2019-03-06T07:37:08.932Z,34.63
2019-03-06T07:40:01.475Z,34.62
2019-03-06T07:42:57.271Z,34.68
2019-03-06T07:46:09.885Z,34.66
2019-03-06T07:49:02.928Z,34.43
2019-03-06T07:51:54.854Z,34.56
2019-03-06T07:54:38.738Z,34.58
2019-03-06T07:57:37.015Z,34.54
2019-03-06T08:00:28.562Z,34.56
2019-03-06T08:03:12.170Z,34.60
2019-03-06T08:05:42.560Z,34.54
2019-03-06T08:08:12.983Z,34.61
2019-03-06T08:10:43.415Z,34.62
2019-03-06T08:13:23.980Z,34.67
2019-03-06T08:16:07.878Z,34.71
2019-03-06T08:18:57.011Z,34.72
2019-03-06T08:21:42.434Z,34.76
2019-03-06T08:24:34.755Z,34.78
2019-03-06T08:27:05.128Z,34.79
2019-03-06T08:29:35.475Z,34.83
2019-03-06T08:32:15.427Z,34.85
2019-03-06T08:34:45.678Z,34.88
2019-03-06T08:37:17.517Z,34.88
2019-03-06T08:39:47.919Z,34.91
2019-03-06T08:42:18.272Z,34.92
2019-03-06T08:44:48.585Z,34.91
2019-03-06T08:47:32.518Z,34.94
2019-03-06T08:50:18.609Z,34.96
2019-03-06T08:53:10.630Z,34.96
2019-03-06T08:56:11.897Z,35.00
2019-03-06T08:58:48.391Z,35.03
2019-03-06T09:01:36.851Z,35.09
2019-03-06T09:04:35.209Z,35.10
2019-03-06T09:07:23.041Z,35.09
2019-03-06T09:10:16.376Z,35.13
2019-03-06T09:13:01.210Z,35.10
2019-03-06T09:15:42.690Z,35.06
2019-03-06T09:18:29.716Z,34.90
2019-03-06T09:21:17.810Z,35.25
2019-03-06T09:24:11.054Z,34.99
2019-03-06T09:27:05.236Z,35.17
2019-03-06T09:29:54.030Z,35.19
2019-03-06T09:32:36.280Z,35.33
2019-03-06T09:35:15.066Z,35.53
2019-03-06T09:38:10.809Z,35.68
2019-03-06T09:40:51.762Z,29.51
2019-03-06T09:43:44.004Z,30.04
2019-03-06T09:46:40.157Z,30.49
2019-03-06T09:49:38.330Z,30.39
2019-03-06T09:52:32.511Z,30.45
2019-03-06T09:55:20.061Z,30.41
2019-03-06T09:58:09.292Z,30.46
2019-03-06T10:01:03.917Z,30.46
2019-03-06T10:04:02.347Z,30.69
2019-03-06T10:06:39.944Z,30.62
2019-03-06T10:09:43.893Z,30.99
2019-03-06T10:12:31.682Z,30.71
2019-03-06T10:15:23.584Z,30.88
2019-03-06T10:18:12.798Z,31.01
2019-03-06T10:20:43.084Z,31.13
2019-03-06T10:23:13.474Z,31.27
2019-03-06T10:25:43.924Z,31.53
2019-03-06T10:28:15.413Z,31.51
2019-03-06T10:30:45.645Z,31.79
2019-03-06T10:33:15.875Z,32.02
2019-03-06T10:35:46.443Z,32.15
2019-03-06T10:38:17.176Z,32.74
2019-03-06T10:40:47.677Z,33.17
2019-03-06T10:43:17.962Z,33.42
2019-03-06T10:45:48.333Z,33.65
2019-03-06T10:48:18.629Z,33.68
2019-03-06T10:50:48.848Z,33.94
2019-03-06T10:53:19.129Z,33.92
2019-03-06T10:55:49.400Z,34.22
2019-03-06T10:58:19.695Z,34.42
2019-03-06T11:00:52.477Z,34.57
2019-03-06T11:03:25.541Z,34.90
2019-03-06T11:05:55.934Z,34.92
2019-03-06T11:08:26.317Z,34.93
2019-03-06T11:10:56.639Z,35.01
2019-03-06T11:13:27.119Z,35.05
2019-03-06T11:15:57.444Z,35.21
2019-03-06T11:18:27.949Z,35.28
2019-03-06T11:20:58.320Z,35.18
2019-03-06T11:23:28.744Z,35.07
2019-03-06T11:25:59.135Z,34.02
2019-03-06T11:28:31.781Z,33.58
2019-03-06T11:31:02.562Z,34.08
2019-03-06T11:33:32.833Z,34.48
2019-03-06T11:36:03.164Z,34.80
2019-03-06T11:38:33.516Z,34.96
2019-03-06T11:41:05.201Z,35.08
2019-03-06T11:43:36.088Z,35.25
2019-03-06T11:46:07.995Z,35.35
2019-03-06T11:48:38.360Z,35.42
2019-03-06T11:51:08.690Z,35.51
2019-03-06T11:53:39.036Z,35.44
2019-03-06T11:56:09.419Z,35.51
2019-03-06T11:58:39.981Z,35.68
2019-03-06T12:01:13.212Z,35.76
2019-03-06T12:03:44.588Z,35.90
2019-03-06T12:06:15.887Z,35.95
2019-03-06T12:08:46.261Z,36.06
2019-03-06T12:11:16.633Z,36.14
2019-03-06T12:13:48.249Z,36.17
2019-03-06T12:16:19.964Z,36.26
2019-03-06T12:18:50.356Z,36.26
2019-03-06T12:21:20.728Z,36.28
2019-03-06T12:23:51.370Z,36.31
2019-03-06T12:26:21.900Z,36.39
2019-03-06T12:28:52.195Z,36.39
2019-03-06T12:31:22.613Z,36.45
2019-03-06T12:33:52.913Z,36.50
2019-03-06T12:36:23.483Z,35.27
2019-03-06T12:38:53.789Z,33.96
2019-03-06T12:41:24.088Z,33.82
2019-03-06T12:43:54.505Z,33.83
2019-03-06T12:46:25.868Z,33.93
2019-03-06T12:49:04.302Z,34.06
2019-03-06T12:51:36.461Z,34.04
2019-03-06T12:54:08.429Z,34.10
2019-03-06T12:56:38.896Z,34.07
2019-03-06T12:59:09.257Z,34.08
2019-03-06T13:01:40.210Z,34.17
2019-03-06T13:04:10.554Z,34.21
2019-03-06T13:06:40.919Z,34.28
2019-03-06T13:09:21.577Z,34.47
2019-03-06T13:11:51.973Z,34.36
2019-03-06T13:14:22.484Z,34.12
2019-03-06T13:16:52.754Z,33.89
2019-03-06T13:19:23.102Z,33.81
2019-03-06T13:21:53.398Z,33.90
2019-03-06T13:24:24.726Z,34.79
2019-03-06T13:26:55.402Z,34.71
2019-03-06T13:29:26.024Z,34.35
2019-03-06T13:31:58.293Z,33.77
2019-03-06T13:34:38.197Z,33.19
2019-03-06T13:37:08.975Z,33.17
2019-03-06T13:39:39.372Z,32.73
2019-03-06T13:42:09.737Z,32.70
2019-03-06T13:44:39.977Z,33.53
2019-03-06T13:47:10.809Z,32.61
2019-03-06T13:49:43.802Z,32.35
2019-03-06T13:52:14.057Z,32.01
2019-03-06T13:54:44.505Z,31.38
2019-03-06T13:57:14.884Z,31.33
2019-03-06T13:59:46.279Z,31.88
2019-03-06T14:02:16.613Z,31.30
2019-03-06T14:04:47.066Z,31.21
2019-03-06T14:07:17.623Z,31.57
2019-03-06T14:09:48.359Z,31.57
2019-03-06T14:12:19.045Z,32.81
2019-03-06T14:14:49.393Z,33.31
2019-03-06T14:17:19.722Z,33.61
2019-03-06T14:19:50.291Z,33.87
2019-03-06T14:22:20.651Z,34.04
2019-03-06T14:24:51.166Z,34.26
2019-03-06T14:27:21.574Z,34.32
2019-03-06T14:29:52.033Z,33.80
2019-03-06T14:32:22.818Z,33.96
2019-03-06T14:34:54.140Z,34.15
2019-03-06T14:37:24.556Z,34.23
2019-03-06T14:39:54.844Z,34.44
2019-03-06T14:42:25.694Z,34.66
2019-03-06T14:44:56.035Z,34.72
2019-03-06T14:47:26.769Z,34.83
2019-03-06T14:49:57.309Z,35.00
2019-03-06T14:52:27.912Z,35.19
2019-03-06T14:54:58.299Z,35.15
2019-03-06T14:57:28.614Z,35.26
2019-03-06T14:59:58.997Z,35.31
2019-03-06T15:02:29.495Z,35.17
2019-03-06T15:04:59.739Z,35.25
2019-03-06T15:07:30.061Z,35.29
2019-03-06T15:10:00.531Z,35.05
2019-03-06T15:12:32.713Z,35.26
2019-03-06T15:15:03.146Z,35.22
2019-03-06T15:17:33.506Z,35.23
2019-03-06T15:20:03.868Z,35.50
2019-03-06T15:22:38.517Z,35.66
2019-03-06T15:25:09.888Z,35.65
2019-03-06T15:27:40.251Z,35.58
2019-03-06T15:30:11.714Z,35.55
2019-03-06T15:32:42.218Z,35.52
2019-03-06T15:35:12.828Z,35.56
2019-03-06T15:37:43.139Z,35.58
2019-03-06T15:40:17.395Z,35.55
2019-03-06T15:42:47.768Z,35.54
2019-03-06T15:45:21.486Z,35.52
2019-03-06T15:47:52.131Z,35.54
2019-03-06T15:50:22.496Z,35.35
2019-03-06T15:52:52.909Z,35.37
2019-03-06T15:55:27.835Z,35.42
2019-03-06T15:57:58.216Z,35.46
2019-03-06T16:00:45.693Z,35.50
2019-03-06T16:03:10.207Z,35.49
2019-03-06T16:05:40.605Z,35.56
2019-03-06T16:08:10.969Z,35.60
2019-03-06T16:10:41.452Z,35.62
2019-03-06T16:13:11.846Z,35.63
2019-03-06T16:15:42.076Z,35.62
2019-03-06T16:18:12.363Z,35.65
2019-03-06T16:20:42.675Z,35.72
2019-03-06T16:23:13.002Z,35.77
2019-03-06T16:25:43.405Z,35.84
2019-03-06T16:28:15.437Z,35.91
2019-03-06T16:30:47.113Z,35.94
2019-03-06T16:33:17.462Z,35.97
2019-03-06T16:35:47.751Z,36.05
2019-03-06T16:38:18.048Z,36.06
2019-03-06T16:40:48.423Z,36.10
2019-03-06T16:43:18.748Z,36.13
2019-03-06T16:45:49.400Z,36.16
2019-03-06T16:48:20.347Z,36.15
2019-03-06T16:50:54.832Z,36.23
2019-03-06T16:53:26.542Z,36.23
2019-03-06T16:55:57.087Z,36.26
2019-03-06T16:58:27.373Z,36.31
2019-03-06T17:00:57.777Z,36.33
2019-03-06T17:03:28.063Z,36.34
2019-03-06T17:05:58.726Z,36.37
2019-03-06T17:08:31.439Z,36.40
2019-03-06T17:11:06.445Z,36.40
2019-03-06T17:13:37.114Z,36.42
2019-03-06T17:16:11.135Z,36.44
2019-03-06T17:18:41.447Z,36.41
2019-03-06T17:21:12.042Z,36.45
2019-03-06T17:23:42.358Z,36.43
2019-03-06T17:26:12.665Z,36.48
2019-03-06T17:28:42.973Z,36.50
2019-03-06T17:31:13.335Z,36.47
2019-03-06T17:33:43.681Z,36.50
2019-03-06T17:36:14.358Z,36.52
2019-03-06T17:38:44.594Z,36.55
2019-03-06T17:41:15.128Z,36.52
2019-03-06T17:43:45.440Z,36.57
2019-03-06T17:46:15.824Z,36.54
2019-03-06T17:48:46.176Z,36.58
2019-03-06T17:51:18.652Z,36.58
2019-03-06T17:53:49.357Z,36.55
2019-03-06T17:56:19.734Z,36.57
2019-03-06T17:58:50.619Z,36.61
2019-03-06T18:01:21.333Z,36.58
2019-03-06T18:04:22.873Z,36.58
2019-03-06T18:06:53.199Z,36.59
2019-03-06T18:09:25.173Z,36.63
2019-03-06T18:11:55.413Z,36.63
2019-03-06T18:14:25.854Z,36.58
2019-03-06T18:16:56.117Z,36.62
2019-03-06T18:19:26.458Z,36.58
2019-03-06T18:21:56.724Z,36.59
2019-03-06T18:24:27.049Z,36.62
2019-03-06T18:26:58.616Z,36.55
2019-03-06T18:29:28.920Z,36.56
2019-03-06T18:31:59.247Z,36.55
2019-03-06T18:34:29.558Z,36.60
2019-03-06T18:37:01.480Z,36.59
2019-03-06T18:39:31.822Z,36.58
2019-03-06T18:42:02.253Z,36.56
2019-03-06T18:44:32.518Z,36.55
2019-03-06T18:47:02.757Z,36.54
2019-03-06T18:49:33.151Z,36.51
2019-03-06T18:52:03.428Z,36.53
2019-03-06T18:54:33.974Z,36.53
2019-03-06T18:57:04.281Z,36.54
2019-03-06T18:59:34.509Z,36.58
2019-03-06T19:02:04.872Z,36.49
2019-03-06T19:04:35.077Z,36.55
2019-03-06T19:07:05.547Z,36.50
2019-03-06T19:09:36.340Z,36.51
2019-03-06T19:12:06.582Z,36.56
2019-03-06T19:14:36.933Z,36.50
2019-03-06T19:17:07.228Z,36.53
2019-03-06T19:19:38.611Z,36.51
2019-03-06T19:22:08.947Z,36.50
2019-03-06T19:24:39.337Z,36.50
2019-03-06T19:27:09.717Z,36.46
2019-03-06T19:29:40.049Z,36.46
2019-03-06T19:32:11.630Z,36.46
2019-03-06T19:34:42.558Z,36.48
2019-03-06T19:37:12.908Z,36.37
2019-03-06T19:39:44.436Z,36.31
2019-03-06T19:42:14.777Z,36.21
2019-03-06T19:44:49.566Z,36.17
2019-03-06T19:47:20.249Z,37.46
2019-03-06T19:49:50.736Z,37.53
2019-03-06T19:52:21.054Z,37.76
2019-03-06T19:54:51.369Z,37.47
2019-03-06T19:57:21.751Z,37.42
2019-03-06T19:59:52.119Z,37.29
2019-03-06T20:02:22.424Z,37.19
2019-03-06T20:04:52.798Z,37.14
2019-03-06T20:07:23.028Z,37.07
2019-03-06T20:09:53.300Z,37.05
2019-03-06T20:12:23.593Z,37.01
2019-03-06T20:14:54.070Z,37.08
2019-03-06T20:17:26.728Z,37.06
2019-03-06T20:19:56.992Z,37.09
2019-03-06T20:22:28.501Z,37.12
2019-03-06T20:24:58.921Z,37.09
2019-03-06T20:27:29.346Z,37.10
2019-03-06T20:29:59.714Z,37.09
2019-03-06T20:32:32.754Z,37.11
2019-03-06T20:35:05.019Z,37.12
2019-03-06T20:37:35.306Z,37.17
2019-03-06T20:40:06.446Z,36.91
2019-03-06T20:42:36.981Z,36.75
2019-03-06T20:45:07.614Z,36.71
2019-03-06T20:47:38.320Z,36.77
2019-03-06T20:50:09.070Z,36.75
2019-03-06T20:52:44.403Z,36.63
2019-03-06T20:55:15.493Z,36.61
2019-03-06T20:57:45.902Z,36.49
2019-03-06T21:00:19.094Z,36.00
2019-03-06T21:02:49.439Z,36.15
2019-03-06T21:05:19.752Z,36.15
2019-03-06T21:07:50.128Z,36.19
2019-03-06T21:10:20.540Z,36.20
2019-03-06T21:12:50.914Z,36.17
2019-03-06T21:15:21.249Z,36.18
2019-03-06T21:17:51.991Z,36.50
2019-03-06T21:20:22.309Z,36.57
2019-03-06T21:22:52.640Z,36.66
2019-03-06T21:25:22.918Z,36.69
2019-03-06T21:27:54.217Z,36.78
2019-03-06T21:30:43.018Z,36.80
2019-03-06T21:33:14.332Z,36.89
2019-03-06T21:35:44.594Z,36.93
2019-03-06T21:38:15.082Z,37.02
2019-03-06T21:40:47.795Z,37.05
2019-03-06T21:43:18.233Z,37.09
2019-03-06T21:45:48.580Z,37.13
2019-03-06T21:48:18.909Z,37.18
2019-03-06T21:50:49.148Z,37.23
2019-03-06T21:53:19.474Z,37.25
2019-03-06T21:55:51.341Z,37.26
2019-03-06T21:58:21.650Z,37.64
2019-03-06T22:00:51.924Z,38.09
2019-03-06T22:03:24.653Z,38.43
2019-03-06T22:05:54.441Z,38.68
2019-03-06T22:08:25.207Z,38.92
2019-03-06T22:10:57.989Z,39.06
2019-03-06T22:13:28.394Z,39.21
2019-03-06T22:15:59.650Z,39.42
2019-03-06T22:18:30.202Z,39.62
2019-03-06T22:21:00.441Z,39.95
2019-03-06T22:23:30.781Z,40.19
2019-03-06T22:26:01.006Z,40.43
2019-03-06T22:28:31.485Z,40.77
2019-03-06T22:31:02.126Z,41.01
2019-03-06T22:33:32.417Z,41.19
2019-03-06T22:36:02.631Z,41.11
2019-03-06T22:38:32.907Z,41.05
2019-03-06T22:41:03.188Z,41.07
2019-03-06T22:43:33.477Z,41.08
2019-03-06T22:46:04.019Z,41.07
2019-03-06T22:48:34.280Z,40.98
2019-03-06T22:51:04.661Z,41.03
2019-03-06T22:53:35.036Z,41.05
2019-03-06T22:56:06.421Z,41.07
2019-03-06T22:58:36.895Z,41.06
2019-03-06T23:01:27.437Z,41.10
2019-03-06T23:03:59.093Z,41.15
2019-03-06T23:06:29.428Z,41.06
2019-03-06T23:08:59.852Z,40.97
2019-03-06T23:11:30.166Z,41.07
2019-03-06T23:14:02.725Z,41.03
2019-03-06T23:16:33.071Z,41.00
2019-03-06T23:19:03.378Z,41.02
2019-03-06T23:21:33.686Z,41.06
2019-03-06T23:24:03.910Z,41.06
2019-03-06T23:26:42.550Z,41.00
2019-03-06T23:29:06.323Z,41.04
2019-03-06T23:31:36.784Z,41.08
2019-03-06T23:34:07.049Z,41.02
2019-03-06T23:36:37.523Z,41.08
2019-03-06T23:39:11.797Z,41.04
2019-03-06T23:41:42.327Z,41.09
2019-03-06T23:44:12.654Z,41.09
2019-03-06T23:46:42.978Z,41.16
2019-03-06T23:49:13.260Z,41.17
2019-03-06T23:51:52.645Z,41.17
2019-03-06T23:54:22.926Z,41.26
2019-03-06T23:56:53.761Z,41.19
2019-03-06T23:59:24.034Z,41.19
